Time;durP1;ratioP1;P1;durP2;ratioP2;P2;SDS_P1;SDS_P2;PMS_P1;PMS_P2;Temp;Humidity;BMP_temperature;BMP_pressure;BME280_temperature;BME280_humidity;BME280_pressure;Samples;Min_cycle;Max_cycle;Signal;HPM_P1;HPM_P2
2022/03/24 00:01:29;;;;;;;44.88;26.58;;;7.00;99.90;;;;;;6266535;22;20019;-67
2022/03/24 00:03:54;;;;;;;43.70;26.20;;;6.90;99.90;;;;;;6267147;22;20019;-65
2022/03/24 00:06:20;;;;;;;35.55;23.60;;;6.90;99.90;;;;;;6267665;22;20023;-69
2022/03/24 00:08:46;;;;;;;39.33;23.58;;;6.80;99.90;;;;;;6267271;22;20384;-69
2022/03/24 00:11:11;;;;;;;33.65;23.65;;;6.80;99.90;;;;;;6267269;22;20031;-70
2022/03/24 00:13:37;;;;;;;41.83;25.77;;;6.80;99.90;;;;;;6266619;22;20015;-68
2022/03/24 00:16:03;;;;;;;42.25;26.25;;;6.70;99.90;;;;;;6239522;22;20119;-62
2022/03/24 00:18:31;;;;;;;38.17;25.02;;;6.70;99.90;;;;;;6267259;22;20023;-57
2022/03/24 00:20:57;;;;;;;51.10;26.20;;;6.70;99.90;;;;;;6267249;22;20020;-57
2022/03/24 00:23:23;;;;;;;41.05;25.50;;;6.70;99.90;;;;;;6239610;22;20365;-56
2022/03/24 00:25:50;;;;;;;39.42;25.77;;;6.60;99.90;;;;;;6267770;22;20026;-57
2022/03/24 00:28:15;;;;;;;41.38;26.83;;;6.80;99.90;;;;;;6266887;22;20015;-57
2022/03/24 00:30:41;;;;;;;41.55;26.25;;;6.60;99.90;;;;;;6267547;22;20473;-57
2022/03/24 00:33:07;;;;;;;44.45;26.80;;;6.50;99.90;;;;;;6239592;22;20024;-57
2022/03/24 00:35:33;;;;;;;41.08;27.20;;;6.50;99.90;;;;;;6267465;22;20022;-56
2022/03/24 00:37:59;;;;;;;42.17;27.08;;;6.50;99.90;;;;;;6266952;22;20031;-57
2022/03/24 00:40:25;;;;;;;43.97;27.55;;;6.50;99.90;;;;;;6266852;22;20011;-57
2022/03/24 00:42:50;;;;;;;42.05;27.08;;;6.50;99.90;;;;;;6266814;22;20069;-57
2022/03/24 00:45:18;;;;;;;40.50;25.10;;;6.40;99.90;;;;;;6266616;22;20055;-57
2022/03/24 00:47:45;;;;;;;44.40;26.63;;;6.40;99.90;;;;;;6266921;22;20077;-57
2022/03/24 00:50:12;;;;;;;41.40;26.48;;;6.40;99.90;;;;;;6266910;22;20019;-56
2022/03/24 00:52:42;;;;;;;43.92;28.05;;;6.40;99.90;;;;;;6239574;22;20016;-57
2022/03/24 00:55:13;;;;;;;42.90;27.75;;;6.30;99.90;;;;;;6267184;22;20055;-57
2022/03/24 00:57:40;;;;;;;54.40;28.30;;;6.30;99.90;;;;;;6266821;22;20059;-56
2022/03/24 01:00:07;;;;;;;45.55;27.40;;;6.30;99.90;;;;;;6266690;22;20065;-57
2022/03/24 01:02:37;;;;;;;43.97;27.00;;;6.20;99.90;;;;;;6266763;22;20015;-57
2022/03/24 01:05:07;;;;;;;42.33;26.90;;;6.20;99.90;;;;;;6239485;22;20020;-57
2022/03/24 01:07:33;;;;;;;48.63;28.45;;;6.20;99.90;;;;;;6266802;22;20078;-57
2022/03/24 01:09:59;;;;;;;47.17;28.15;;;6.20;99.90;;;;;;6266766;22;20023;-60
2022/03/24 01:12:24;;;;;;;46.60;29.60;;;6.10;99.90;;;;;;6266377;22;20020;-59
2022/03/24 01:14:50;;;;;;;53.17;30.67;;;6.10;99.90;;;;;;6266876;22;20027;-57
2022/03/24 01:17:17;;;;;;;52.53;29.50;;;6.10;99.90;;;;;;6266190;22;20023;-57
2022/03/24 01:19:44;;;;;;;45.90;28.88;;;6.10;99.90;;;;;;6266105;22;20119;-57
2022/03/24 01:22:10;;;;;;;42.25;27.67;;;6.10;99.90;;;;;;6267114;22;20020;-61
2022/03/24 01:24:38;;;;;;;49.22;29.30;;;6.00;99.90;;;;;;6265908;22;20012;-59
2022/03/24 01:27:05;;;;;;;49.78;30.63;;;6.00;99.90;;;;;;6266566;22;20089;-57
2022/03/24 01:29:31;;;;;;;51.35;31.08;;;5.90;99.90;;;;;;6266511;22;20073;-60
2022/03/24 01:31:57;;;;;;;49.78;29.92;;;5.90;99.90;;;;;;6266868;22;20426;-59
2022/03/24 01:34:24;;;;;;;46.50;30.13;;;5.90;99.90;;;;;;6265917;22;20351;-57
2022/03/24 01:36:50;;;;;;;47.67;29.73;;;5.90;99.90;;;;;;6266901;22;20421;-60
2022/03/24 01:39:16;;;;;;;49.13;30.77;;;5.90;99.90;;;;;;6266183;22;20065;-59
2022/03/24 01:41:44;;;;;;;46.53;29.20;;;5.90;99.90;;;;;;6266349;22;20437;-58
2022/03/24 01:44:12;;;;;;;49.75;31.42;;;5.80;99.90;;;;;;6266185;22;20521;-59
2022/03/24 01:46:52;;;;;;;45.17;29.05;;;6.40;99.90;;;;;;6239403;22;20027;-56
2022/03/24 01:49:18;;;;;;;42.67;29.38;;;5.80;99.90;;;;;;6266418;22;20023;-57
2022/03/24 01:51:43;;;;;;;50.50;29.80;;;4.30;99.90;;;;;;6239145;22;20019;-59
2022/03/24 01:54:10;;;;;;;49.67;30.65;;;5.70;99.90;;;;;;6266647;22;20016;-57
2022/03/24 01:56:35;;;;;;;51.78;30.02;;;5.70;99.90;;;;;;6266175;22;20486;-57
2022/03/24 01:59:01;;;;;;;48.13;28.73;;;5.70;99.90;;;;;;6266778;22;20051;-63
2022/03/24 02:01:36;;;;;;;49.90;31.30;;;5.60;99.90;;;;;;6267151;22;20082;-65
2022/03/24 02:04:06;;;;;;;48.63;29.48;;;5.60;99.90;;;;;;6241174;22;20026;-58
2022/03/24 02:06:35;;;;;;;48.53;28.40;;;5.50;99.90;;;;;;6268742;22;20034;-64
2022/03/24 02:09:02;;;;;;;58.08;28.60;;;5.50;99.90;;;;;;6269167;22;20012;-67
2022/03/24 02:11:28;;;;;;;49.15;28.83;;;5.50;99.90;;;;;;6268556;22;20015;-69
2022/03/24 02:13:55;;;;;;;44.88;30.88;;;5.40;99.90;;;;;;6269077;22;20039;-64
2022/03/24 02:16:25;;;;;;;44.13;27.88;;;5.40;99.90;;;;;;6268071;22;20051;-67
2022/03/24 02:18:51;;;;;;;47.60;28.75;;;5.40;99.90;;;;;;6268754;22;20047;-59
2022/03/24 02:21:17;;;;;;;50.05;29.58;;;5.40;99.90;;;;;;6267969;22;20039;-58
2022/03/24 02:23:44;;;;;;;48.80;29.50;;;5.40;99.90;;;;;;6268445;22;20579;-63
2022/03/24 02:26:10;;;;;;;50.13;29.50;;;5.40;99.90;;;;;;6268566;22;20022;-58
2022/03/24 02:28:36;;;;;;;49.42;30.08;;;5.30;99.90;;;;;;6268262;22;20082;-60
2022/03/24 02:31:04;;;;;;;42.22;28.08;;;5.30;99.90;;;;;;6267977;22;20361;-60
2022/03/24 02:33:30;;;;;;;52.03;29.23;;;5.30;99.90;;;;;;6268629;22;20026;-57
2022/03/24 02:35:56;;;;;;;49.30;29.98;;;5.20;99.90;;;;;;6239956;22;20016;-57
2022/03/24 02:38:22;;;;;;;46.20;27.52;;;5.20;99.90;;;;;;6241054;22;20855;-57
2022/03/24 02:40:51;;;;;;;48.03;29.00;;;5.20;99.90;;;;;;6268458;22;20019;-56
2022/03/24 02:43:20;;;;;;;46.00;27.70;;;5.10;99.90;;;;;;6268654;22;20023;-57
2022/03/24 02:45:47;;;;;;;46.10;28.42;;;6.20;99.90;;;;;;6267536;22;20528;-57
2022/03/24 02:48:13;;;;;;;46.88;27.33;;;5.10;99.90;;;;;;6241371;22;20023;-57
2022/03/24 02:50:39;;;;;;;44.97;28.42;;;5.00;99.90;;;;;;6268397;22;20094;-57
2022/03/24 02:53:05;;;;;;;46.70;28.58;;;5.00;99.90;;;;;;6267519;22;20055;-58
2022/03/24 02:55:31;;;;;;;46.67;28.33;;;5.20;99.90;;;;;;6268123;22;20016;-58
2022/03/24 02:57:56;;;;;;;51.08;29.92;;;5.00;99.90;;;;;;6267950;22;20028;-61
2022/03/24 03:00:25;;;;;;;53.45;32.42;;;5.00;99.90;;;;;;6268032;22;20074;-60
2022/03/24 03:02:55;;;;;;;49.85;29.58;;;5.00;99.90;;;;;;6268449;22;20020;-57
2022/03/24 03:05:21;;;;;;;52.03;31.70;;;4.90;99.90;;;;;;6267981;22;20012;-59
2022/03/24 03:07:48;;;;;;;49.30;31.38;;;4.90;99.90;;;;;;6267736;22;20027;-61
2022/03/24 03:10:16;;;;;;;47.15;28.10;;;4.90;99.90;;;;;;6267222;22;20019;-70
2022/03/24 03:12:44;;;;;;;52.88;31.48;;;4.90;99.90;;;;;;6267750;22;20019;-69
2022/03/24 03:15:10;;;;;;;52.33;30.77;;;4.90;99.90;;;;;;6267355;22;20121;-69
2022/03/24 03:17:37;;;;;;;57.70;30.83;;;4.90;99.90;;;;;;6267598;22;20451;-65
2022/03/24 03:20:06;;;;;;;55.22;33.75;;;4.90;99.90;;;;;;6267657;22;20015;-65
2022/03/24 03:22:32;;;;;;;52.67;30.60;;;4.80;99.90;;;;;;6267662;22;20071;-58
2022/03/24 03:24:59;;;;;;;52.83;31.83;;;4.80;99.90;;;;;;6267437;22;20346;-57
2022/03/24 03:27:26;;;;;;;56.10;32.15;;;4.70;99.90;;;;;;6266473;22;20447;-68
2022/03/24 03:29:52;;;;;;;53.20;30.90;;;4.70;99.90;;;;;;6266627;22;20016;-64
2022/03/24 03:32:20;;;;;;;54.10;32.80;;;4.70;99.90;;;;;;6266961;22;20027;-64
2022/03/24 03:34:46;;;;;;;52.22;31.67;;;4.90;99.90;;;;;;6267467;22;20022;-65
2022/03/24 03:37:12;;;;;;;56.63;31.80;;;5.60;99.90;;;;;;6267560;22;20020;-63
2022/03/24 03:39:38;;;;;;;52.60;31.35;;;4.60;99.90;;;;;;6267698;22;20016;-63
2022/03/24 03:42:04;;;;;;;53.00;31.83;;;4.60;99.90;;;;;;6266909;22;20324;-69
2022/03/24 03:44:30;;;;;;;62.60;32.92;;;4.60;99.90;;;;;;6267910;22;20015;-66
2022/03/24 03:46:56;;;;;;;49.80;30.50;;;4.70;99.90;;;;;;6267219;22;20023;-65
2022/03/24 03:49:22;;;;;;;54.05;31.92;;;4.60;99.90;;;;;;6240257;22;20046;-58
2022/03/24 03:51:48;;;;;;;51.88;32.72;;;4.50;99.90;;;;;;6266510;22;20019;-57
2022/03/24 03:54:14;;;;;;;50.83;30.85;;;4.50;99.90;;;;;;6267891;22;20051;-57
2022/03/24 03:56:40;;;;;;;57.00;33.17;;;4.50;99.90;;;;;;6266898;22;20746;-58
2022/03/24 03:59:07;;;;;;;51.55;31.30;;;4.50;99.90;;;;;;6267343;22;20030;-56
2022/03/24 04:01:33;;;;;;;55.05;33.15;;;4.50;99.90;;;;;;6266927;22;20053;-59
2022/03/24 04:04:00;;;;;;;51.78;30.98;;;4.40;99.90;;;;;;6266795;22;20027;-57
2022/03/24 04:06:26;;;;;;;53.58;31.60;;;4.30;99.90;;;;;;6267026;22;20552;-59
2022/03/24 04:08:52;;;;;;;48.70;29.52;;;4.40;99.90;;;;;;6268467;22;20024;-61
2022/03/24 04:11:19;;;;;;;50.42;30.33;;;4.40;99.90;;;;;;6267244;22;20137;-57
2022/03/24 04:13:46;;;;;;;52.53;30.23;;;4.40;99.90;;;;;;6266753;22;20026;-62
2022/03/24 04:16:12;;;;;;;53.92;29.48;;;4.30;99.90;;;;;;6267032;22;20019;-57
2022/03/24 04:18:43;;;;;;;49.95;28.60;;;2.60;99.90;;;;;;6266911;22;20016;-58
2022/03/24 04:21:09;;;;;;;53.15;31.08;;;4.20;99.90;;;;;;6267100;22;20459;-59
2022/03/24 04:23:37;;;;;;;49.47;28.10;;;4.20;99.90;;;;;;6267144;22;20059;-57
2022/03/24 04:26:03;;;;;;;50.40;29.90;;;4.20;99.90;;;;;;6266592;22;20454;-61
2022/03/24 04:28:29;;;;;;;49.60;29.08;;;4.20;99.90;;;;;;6266947;22;20484;-56
2022/03/24 04:30:55;;;;;;;49.60;29.48;;;4.20;99.90;;;;;;6240293;22;20107;-58
2022/03/24 04:33:21;;;;;;;46.05;27.13;;;4.10;99.90;;;;;;6239792;22;20476;-57
2022/03/24 04:35:46;;;;;;;46.22;27.80;;;4.10;99.90;;;;;;6266692;22;20031;-61
2022/03/24 04:38:14;;;;;;;42.17;26.00;;;4.10;99.90;;;;;;6266999;22;20103;-63
2022/03/24 04:40:39;;;;;;;44.80;25.85;;;4.00;99.90;;;;;;6267229;22;20086;-59
2022/03/24 04:43:05;;;;;;;47.65;27.75;;;4.00;99.90;;;;;;6266072;22;20055;-59
2022/03/24 04:45:33;;;;;;;45.17;27.45;;;4.00;99.90;;;;;;6239755;22;20023;-57
2022/03/24 04:48:00;;;;;;;45.92;26.75;;;3.90;99.90;;;;;;6266556;22;20081;-60
2022/03/24 04:50:26;;;;;;;42.80;25.38;;;3.90;99.90;;;;;;6266789;22;20341;-64
2022/03/24 04:52:52;;;;;;;47.03;25.90;;;3.90;99.90;;;;;;6266514;22;20058;-65
2022/03/24 04:55:18;;;;;;;47.38;27.73;;;3.90;99.90;;;;;;6266805;22;20016;-68
2022/03/24 04:57:45;;;;;;;38.65;22.92;;;3.90;99.90;;;;;;6266016;22;20020;-64
2022/03/24 05:00:12;;;;;;;42.92;24.13;;;3.80;99.90;;;;;;6267442;22;20016;-58
2022/03/24 05:02:39;;;;;;;44.20;25.70;;;3.80;99.90;;;;;;6266280;22;20023;-57
2022/03/24 05:05:06;;;;;;;41.30;26.15;;;3.80;99.90;;;;;;6265896;22;20513;-57
2022/03/24 05:07:32;;;;;;;44.20;24.38;;;3.80;99.90;;;;;;6267490;22;20020;-59
2022/03/24 05:09:57;;;;;;;43.72;27.45;;;3.80;99.90;;;;;;6266846;22;20073;-58
2022/03/24 05:12:23;;;;;;;45.20;26.63;;;3.70;99.90;;;;;;6267134;22;20024;-57
2022/03/24 05:14:50;;;;;;;45.28;26.83;;;3.70;99.90;;;;;;6266872;22;20324;-60
2022/03/24 05:17:17;;;;;;;43.47;25.48;;;3.70;99.90;;;;;;6239597;22;20109;-59
2022/03/24 05:19:45;;;;;;;42.50;25.27;;;3.70;99.90;;;;;;6266433;22;20766;-61
2022/03/24 05:22:11;;;;;;;46.08;25.88;;;3.70;99.90;;;;;;6266027;22;20442;-59
2022/03/24 05:24:38;;;;;;;47.97;25.23;;;3.70;99.90;;;;;;6266354;22;20023;-57
2022/03/24 05:27:05;;;;;;;44.80;26.88;;;3.60;99.90;;;;;;6266443;22;20026;-57
2022/03/24 05:29:32;;;;;;;49.40;26.63;;;3.60;99.90;;;;;;6266197;22;20016;-59
2022/03/24 05:31:57;;;;;;;41.80;24.65;;;3.60;99.90;;;;;;6266453;22;20055;-58
2022/03/24 05:34:23;;;;;;;43.08;26.17;;;3.60;99.90;;;;;;6266130;22;20117;-60
2022/03/24 05:36:50;;;;;;;46.28;26.35;;;3.60;99.90;;;;;;6267556;22;20454;-59
2022/03/24 05:39:16;;;;;;;45.50;26.55;;;3.60;99.90;;;;;;6268424;22;20704;-57
2022/03/24 05:41:42;;;;;;;45.28;27.38;;;3.70;99.90;;;;;;6267575;22;20525;-57
2022/03/24 05:44:07;;;;;;;50.20;29.50;;;3.70;99.90;;;;;;6241334;22;20022;-58
2022/03/24 05:46:35;;;;;;;48.05;28.70;;;3.70;99.90;;;;;;6268598;22;20073;-60
2022/03/24 05:49:04;;;;;;;46.90;27.10;;;3.80;99.90;;;;;;6268272;22;20015;-58
2022/03/24 05:51:30;;;;;;;50.45;28.98;;;3.70;99.90;;;;;;6241628;22;20437;-60
2022/03/24 05:53:56;;;;;;;47.75;27.25;;;4.60;99.90;;;;;;6268495;22;20015;-57
2022/03/24 05:56:22;;;;;;;44.83;26.40;;;3.70;99.90;;;;;;6240239;22;20123;-56
2022/03/24 05:58:48;;;;;;;46.08;25.90;;;3.70;99.90;;;;;;6268377;22;20020;-57
2022/03/24 06:01:15;;;;;;;44.70;25.48;;;3.70;99.90;;;;;;6268202;22;20016;-57
2022/03/24 06:03:44;;;;;;;45.80;27.60;;;3.70;99.90;;;;;;6268103;22;20023;-57
2022/03/24 06:06:10;;;;;;;44.35;25.98;;;3.80;99.90;;;;;;6268114;22;20438;-57
2022/03/24 06:08:36;;;;;;;47.28;27.73;;;3.90;99.90;;;;;;6267963;22;20019;-57
2022/03/24 06:11:04;;;;;;;50.28;27.55;;;3.90;99.90;;;;;;6268102;22;20828;-57
2022/03/24 06:13:30;;;;;;;43.13;25.52;;;3.90;99.90;;;;;;6268569;22;20020;-57
2022/03/24 06:15:56;;;;;;;40.55;24.98;;;4.00;99.90;;;;;;6237014;22;20130;-58
2022/03/24 06:18:22;;;;;;;45.35;26.40;;;4.10;99.90;;;;;;6241130;22;20086;-56
2022/03/24 06:20:47;;;;;;;43.30;26.65;;;4.20;99.90;;;;;;6267276;22;20462;-60
2022/03/24 06:23:13;;;;;;;40.55;25.30;;;4.40;99.90;;;;;;6268724;22;20061;-57
2022/03/24 06:25:42;;;;;;;47.22;28.42;;;4.30;99.90;;;;;;6268223;22;20019;-57
2022/03/24 06:28:08;;;;;;;45.40;28.35;;;4.40;99.90;;;;;;6264880;22;20061;-58
2022/03/24 06:30:34;;;;;;;50.78;28.25;;;4.50;99.90;;;;;;6267556;22;20026;-63
2022/03/24 06:33:00;;;;;;;47.65;28.30;;;4.60;99.90;;;;;;6267846;22;20087;-63
2022/03/24 06:35:26;;;;;;;44.30;29.20;;;5.70;99.90;;;;;;6267751;22;20051;-66
2022/03/24 06:37:53;;;;;;;47.15;27.65;;;4.90;99.90;;;;;;6267831;22;20402;-68
2022/03/24 06:40:20;;;;;;;47.63;28.00;;;5.00;99.90;;;;;;6267478;22;20016;-58
2022/03/24 06:42:46;;;;;;;46.60;29.02;;;5.20;99.90;;;;;;6267365;22;20019;-56
2022/03/24 06:45:13;;;;;;;43.90;28.35;;;5.30;99.90;;;;;;6267694;22;20022;-57
2022/03/24 06:47:40;;;;;;;53.03;30.55;;;5.50;99.90;;;;;;6267070;22;20138;-57
2022/03/24 06:50:11;;;;;;;52.10;29.95;;;5.60;99.90;;;;;;6266629;22;20016;-58
2022/03/24 06:52:36;;;;;;;49.78;30.98;;;5.80;99.90;;;;;;6267860;22;20062;-57
2022/03/24 06:55:05;;;;;;;50.72;30.13;;;6.10;99.90;;;;;;6267439;22;20011;-57
2022/03/24 06:57:31;;;;;;;50.42;30.27;;;6.20;99.90;;;;;;6266465;22;20447;-56
2022/03/24 06:59:56;;;;;;;56.22;32.42;;;6.40;99.90;;;;;;6266734;22;20044;-57
2022/03/24 07:02:22;;;;;;;56.85;31.85;;;6.70;99.90;;;;;;6267351;22;20020;-61
2022/03/24 07:04:48;;;;;;;57.35;33.22;;;6.90;99.90;;;;;;6266772;22;20015;-68
2022/03/24 07:07:13;;;;;;;56.03;33.20;;;7.20;99.90;;;;;;6240481;22;20016;-68
2022/03/24 07:09:39;;;;;;;55.88;34.03;;;7.50;99.90;;;;;;6267701;22;20047;-70
2022/03/24 07:12:05;;;;;;;59.83;33.58;;;7.90;99.90;;;;;;6264153;22;20023;-66
2022/03/24 07:14:31;;;;;;;54.33;33.15;;;8.10;99.90;;;;;;6239230;22;20395;-70
2022/03/24 07:16:57;;;;;;;58.40;33.38;;;8.40;99.90;;;;;;6266948;22;20146;-57
2022/03/24 07:19:23;;;;;;;64.05;37.25;;;8.70;99.90;;;;;;6267682;22;20016;-59
2022/03/24 07:21:48;;;;;;;78.13;43.38;;;9.00;99.90;;;;;;6265934;22;20034;-60
2022/03/24 07:24:15;;;;;;;72.90;42.20;;;9.20;99.90;;;;;;6261264;22;20020;-60
2022/03/24 07:26:41;;;;;;;77.15;48.17;;;9.50;99.90;;;;;;6265792;22;20078;-59
2022/03/24 07:29:10;;;;;;;69.70;41.58;;;9.80;99.90;;;;;;6264853;22;20442;-58
2022/03/24 07:31:37;;;;;;;59.60;37.95;;;10.10;99.90;;;;;;6266073;22;20023;-58
2022/03/24 07:34:02;;;;;;;56.72;36.72;;;10.40;99.90;;;;;;6264392;22;20024;-68
2022/03/24 07:36:28;;;;;;;62.05;36.15;;;10.50;99.90;;;;;;6237517;22;20026;-72
2022/03/24 07:38:56;;;;;;;57.03;35.95;;;10.80;99.90;;;;;;6266208;22;20015;-69
2022/03/24 07:41:22;;;;;;;58.78;36.33;;;11.20;99.90;;;;;;6265091;22;20046;-63
2022/03/24 07:43:48;;;;;;;52.15;32.25;;;11.30;99.90;;;;;;6267240;22;20019;-67
2022/03/24 07:46:14;;;;;;;54.75;34.80;;;11.40;99.90;;;;;;6266232;22;20019;-67
2022/03/24 07:48:40;;;;;;;57.42;34.63;;;11.70;99.90;;;;;;6266248;22;20054;-64
2022/03/24 07:51:07;;;;;;;56.20;35.03;;;11.80;99.90;;;;;;6265167;22;20055;-57
2022/03/24 07:53:44;;;;;;;54.72;31.58;;;11.90;99.90;;;;;;6265887;22;20020;-57
2022/03/24 07:56:09;;;;;;;55.88;33.65;;;12.10;99.90;;;;;;6265933;22;20083;-57
2022/03/24 07:58:36;;;;;;;54.80;32.03;;;12.20;99.90;;;;;;6237739;22;20443;-59
2022/03/24 08:01:02;;;;;;;48.15;33.05;;;12.40;99.90;;;;;;6266987;22;20046;-60
2022/03/24 08:03:28;;;;;;;46.53;32.50;;;12.70;99.90;;;;;;6266814;22;20041;-57
2022/03/24 08:05:53;;;;;;;48.25;29.98;;;13.10;99.90;;;;;;6265125;22;20083;-57
2022/03/24 08:08:20;;;;;;;48.72;30.35;;;13.10;99.90;;;;;;6265775;22;20023;-58
2022/03/24 08:10:48;;;;;;;48.13;29.63;;;13.40;99.90;;;;;;6264813;22;20023;-58
2022/03/24 08:13:15;;;;;;;50.30;30.13;;;13.70;99.90;;;;;;6263629;22;20023;-57
2022/03/24 08:15:42;;;;;;;45.95;30.55;;;14.00;99.90;;;;;;6265417;22;20057;-58
2022/03/24 08:18:09;;;;;;;48.05;29.45;;;14.30;99.90;;;;;;6239878;22;20088;-58
2022/03/24 08:20:36;;;;;;;47.35;28.25;;;14.50;99.90;;;;;;6267535;22;20055;-60
2022/03/24 08:23:08;;;;;;;45.33;30.77;;;14.70;99.90;;;;;;6238998;22;20370;-59
2022/03/24 08:25:34;;;;;;;46.03;31.23;;;14.70;99.90;;;;;;6240376;22;20020;-60
2022/03/24 08:28:00;;;;;;;49.15;30.52;;;14.90;99.90;;;;;;6266188;22;20019;-60
2022/03/24 08:30:26;;;;;;;53.58;31.85;;;15.30;99.90;;;;;;6266441;22;20028;-57
2022/03/24 08:32:52;;;;;;;44.53;30.50;;;15.50;99.90;;;;;;6266645;22;20019;-57
2022/03/24 08:35:18;;;;;;;51.38;29.52;;;15.60;99.90;;;;;;6266794;22;20375;-57
2022/03/24 08:37:44;;;;;;;44.17;27.90;;;15.90;99.90;;;;;;6266535;22;20376;-57
2022/03/24 08:40:10;;;;;;;39.70;26.30;;;15.80;99.90;;;;;;6266590;22;20521;-59
2022/03/24 08:42:38;;;;;;;47.78;29.23;;;15.50;99.90;;;;;;6267507;22;20061;-59
2022/03/24 08:45:05;;;;;;;39.10;25.90;;;15.80;99.90;;;;;;6267547;22;20015;-58
2022/03/24 08:47:31;;;;;;;41.25;26.50;;;15.80;99.90;;;;;;6266810;22;20026;-57
2022/03/24 08:49:57;;;;;;;41.35;24.95;;;16.10;99.90;;;;;;6266787;22;20024;-59
2022/03/24 08:52:23;;;;;;;38.80;25.73;;;16.40;99.90;;;;;;6266976;22;20026;-57
2022/03/24 08:54:49;;;;;;;38.72;24.25;;;16.60;99.90;;;;;;6267398;22;20017;-57
2022/03/24 08:57:15;;;;;;;39.22;24.10;;;17.40;99.90;;;;;;6239210;22;20024;-57
2022/03/24 08:59:41;;;;;;;42.95;25.30;;;17.60;99.80;;;;;;6266627;22;20016;-57
2022/03/24 09:02:08;;;;;;;40.33;25.08;;;18.00;99.30;;;;;;6267165;22;20020;-59
2022/03/24 09:04:34;;;;;;;37.95;24.13;;;18.20;98.90;;;;;;6239084;22;20051;-57
2022/03/24 09:07:00;;;;;;;38.53;24.85;;;17.90;99.10;;;;;;6265629;22;20057;-60
2022/03/24 09:09:26;;;;;;;40.20;25.23;;;18.40;98.00;;;;;;6266760;22;20073;-57
2022/03/24 09:11:52;;;;;;;36.42;23.85;;;18.50;98.50;;;;;;6268575;22;20446;-57
2022/03/24 09:14:19;;;;;;;40.13;26.35;;;18.70;97.50;;;;;;6215577;22;20019;-57
2022/03/24 09:16:45;;;;;;;39.00;27.17;;;19.00;97.80;;;;;;6268666;22;20062;-57
2022/03/24 09:19:12;;;;;;;37.15;23.73;;;19.50;97.30;;;;;;6268431;22;20512;-57
2022/03/24 09:21:38;;;;;;;39.67;26.77;;;18.90;98.00;;;;;;6267703;22;20035;-57
2022/03/24 09:24:04;;;;;;;36.72;26.10;;;18.90;97.80;;;;;;6268842;22;20011;-57
2022/03/24 09:26:30;;;;;;;36.33;24.65;;;19.20;97.40;;;;;;6268997;22;20028;-57
2022/03/24 09:28:57;;;;;;;37.22;25.60;;;19.10;97.20;;;;;;6268394;22;20430;-61
2022/03/24 09:31:23;;;;;;;33.72;23.85;;;18.60;96.90;;;;;;6268466;22;20028;-58
2022/03/24 09:33:49;;;;;;;34.03;24.73;;;19.20;97.00;;;;;;6262888;22;20031;-59
2022/03/24 09:36:15;;;;;;;44.83;25.88;;;19.60;96.30;;;;;;6241380;22;20019;-60
2022/03/24 09:38:40;;;;;;;35.53;23.95;;;19.10;96.70;;;;;;6240113;22;20439;-68
2022/03/24 09:41:06;;;;;;;34.65;24.33;;;19.20;95.50;;;;;;6269161;22;20018;-60
2022/03/24 09:43:36;;;;;;;38.13;25.33;;;19.40;96.40;;;;;;6241626;22;20343;-57
2022/03/24 09:46:03;;;;;;;36.75;25.08;;;19.80;95.60;;;;;;6268227;22;20020;-57
2022/03/24 09:48:28;;;;;;;36.65;26.27;;;19.90;94.90;;;;;;6268084;22;20019;-57
2022/03/24 09:50:54;;;;;;;42.97;26.67;;;19.10;95.30;;;;;;6267882;22;20393;-57
2022/03/24 09:53:23;;;;;;;34.85;23.38;;;19.70;95.00;;;;;;6267592;22;20110;-57
2022/03/24 09:55:50;;;;;;;34.72;24.08;;;20.50;95.00;;;;;;6269169;22;20080;-57
2022/03/24 09:58:16;;;;;;;36.42;25.33;;;20.40;95.10;;;;;;6265391;22;20024;-57
2022/03/24 10:00:42;;;;;;;34.40;25.27;;;20.60;95.10;;;;;;6268017;22;20027;-57
2022/03/24 10:03:21;;;;;;;39.25;25.67;;;21.00;94.50;;;;;;6267362;22;20353;-57
2022/03/24 10:06:09;;;;;;;33.63;23.27;;;20.70;92.50;;;;;;6267357;22;20019;-57
2022/03/24 10:08:36;;;;;;;37.70;24.75;;;21.00;92.10;;;;;;6267544;22;20347;-57
2022/03/24 10:11:09;;;;;;;32.53;22.50;;;21.00;93.10;;;;;;6266849;22;20442;-57
2022/03/24 10:13:46;;;;;;;34.17;24.02;;;20.40;92.20;;;;;;6266734;22;20049;-57
2022/03/24 10:16:39;;;;;;;40.00;27.00;;;20.80;92.30;;;;;;6267946;22;20019;-59
2022/03/24 10:19:14;;;;;;;32.28;23.20;;;20.90;91.60;;;;;;6253212;22;20020;-57
2022/03/24 10:21:50;;;;;;;40.95;26.05;;;20.80;92.60;;;;;;6267458;22;20477;-57
2022/03/24 10:24:19;;;;;;;35.25;24.90;;;21.10;92.40;;;;;;6266812;22;20035;-57
2022/03/24 10:27:00;;;;;;;32.03;23.80;;;21.60;92.40;;;;;;6267719;22;20027;-57
2022/03/24 10:29:27;;;;;;;36.83;24.55;;;21.30;92.30;;;;;;6265775;22;20628;-57
2022/03/24 10:31:57;;;;;;;34.08;23.50;;;21.40;92.30;;;;;;6266120;22;20082;-57
2022/03/24 10:34:39;;;;;;;32.10;22.98;;;21.50;92.30;;;;;;6267134;22;20087;-57
2022/03/24 10:37:12;;;;;;;31.88;24.05;;;21.60;91.50;;;;;;6267185;22;20019;-57
2022/03/24 10:39:39;;;;;;;36.13;24.70;;;22.00;92.30;;;;;;6267021;22;20028;-57
2022/03/24 10:42:19;;;;;;;40.40;28.23;;;22.10;92.10;;;;;;6267883;22;20020;-57
2022/03/24 10:45:06;;;;;;;37.58;24.30;;;21.60;91.00;;;;;;6268024;22;20023;-57
2022/03/24 10:47:42;;;;;;;34.78;25.30;;;21.90;90.70;;;;;;6266732;22;20462;-57
2022/03/24 10:50:22;;;;;;;40.13;26.08;;;22.50;90.80;;;;;;6267009;22;20027;-57
2022/03/24 10:52:48;;;;;;;39.13;25.77;;;21.90;90.60;;;;;;6267245;22;20557;-57
2022/03/24 10:55:40;;;;;;;37.58;26.90;;;21.70;91.30;;;;;;6239144;22;20047;-57
2022/03/24 10:58:36;;;;;;;35.67;23.83;;;21.90;89.50;;;;;;6267314;22;20020;-57
2022/03/24 11:01:04;;;;;;;35.10;24.90;;;21.90;89.80;;;;;;6267545;22;20019;-57
2022/03/24 11:03:31;;;;;;;36.40;26.38;;;22.00;89.50;;;;;;6266865;22;20047;-57
2022/03/24 11:06:27;;;;;;;38.90;27.48;;;21.70;90.80;;;;;;6267081;22;20035;-58
2022/03/24 11:08:55;;;;;;;38.17;25.00;;;21.80;90.50;;;;;;6265723;22;20397;-59
2022/03/24 11:11:21;;;;;;;37.08;25.58;;;22.40;90.30;;;;;;6263137;22;20452;-57
2022/03/24 11:13:59;;;;;;;39.83;26.33;;;22.50;89.40;;;;;;6233625;22;20023;-57
2022/03/24 11:16:36;;;;;;;32.40;24.20;;;22.70;89.30;;;;;;6208336;22;20019;-58
2022/03/24 11:19:15;;;;;;;35.80;21.75;;;22.40;88.60;;;;;;6211273;22;20023;-57
2022/03/24 11:22:00;;;;;;;37.80;24.30;;;23.00;89.60;;;;;;6210160;22;20020;-57
2022/03/24 11:24:32;;;;;;;40.40;27.08;;;22.70;88.60;;;;;;6221467;22;20027;-57
2022/03/24 11:26:58;;;;;;;40.38;28.35;;;22.60;89.90;;;;;;6234190;22;20030;-58
2022/03/24 11:29:41;;;;;;;37.70;26.52;;;22.50;88.10;;;;;;6262000;22;20484;-57
2022/03/24 11:32:11;;;;;;;37.38;26.02;;;22.10;89.10;;;;;;6210258;22;20031;-57
2022/03/24 11:34:39;;;;;;;32.38;24.25;;;23.00;88.50;;;;;;6262426;22;20019;-57
2022/03/24 11:37:05;;;;;;;39.28;25.67;;;23.30;88.50;;;;;;6262807;22;20019;-57
2022/03/24 11:39:31;;;;;;;35.95;25.60;;;23.30;88.00;;;;;;6263437;22;20090;-57
2022/03/24 11:41:57;;;;;;;38.90;25.85;;;22.70;87.40;;;;;;6263139;22;20015;-57
2022/03/24 11:44:43;;;;;;;41.22;25.25;;;22.50;86.10;;;;;;6263108;22;20042;-57
2022/03/24 11:47:13;;;;;;;32.40;23.17;;;22.40;85.80;;;;;;6262119;22;20030;-57
2022/03/24 11:49:39;;;;;;;34.28;24.27;;;22.90;87.00;;;;;;6262753;22;20019;-57
2022/03/24 11:52:05;;;;;;;36.78;26.20;;;23.10;85.20;;;;;;6262309;22;20019;-57
2022/03/24 11:54:35;;;;;;;37.70;25.55;;;22.50;84.20;;;;;;6262929;22;20366;-58
2022/03/24 11:57:31;;;;;;;36.95;25.30;;;23.10;84.50;;;;;;6262983;22;20304;-58
2022/03/24 12:00:12;;;;;;;38.13;24.42;;;23.10;84.80;;;;;;6262772;22;20058;-57
2022/03/24 12:02:39;;;;;;;34.97;23.05;;;23.60;83.30;;;;;;6260968;22;20024;-57
2022/03/24 12:05:05;;;;;;;31.67;21.48;;;23.60;85.50;;;;;;6261519;22;20068;-57
2022/03/24 12:07:31;;;;;;;33.13;23.58;;;24.30;84.50;;;;;;6235020;22;20026;-57
2022/03/24 12:10:06;;;;;;;32.17;23.33;;;24.10;83.10;;;;;;6235032;22;20090;-57
2022/03/24 12:12:33;;;;;;;34.55;22.60;;;24.90;83.30;;;;;;6263187;22;20505;-58
2022/03/24 12:15:15;;;;;;;31.25;21.58;;;25.20;83.50;;;;;;6234564;22;20025;-58
2022/03/24 12:18:14;;;;;;;29.77;20.55;;;25.50;80.90;;;;;;6262563;22;20019;-58
2022/03/24 12:20:42;;;;;;;29.88;21.23;;;26.20;77.50;;;;;;6235920;22;20019;-59
2022/03/24 12:23:08;;;;;;;36.15;24.27;;;25.80;81.50;;;;;;6263244;22;20054;-58
2022/03/24 12:25:35;;;;;;;30.27;22.23;;;25.30;81.60;;;;;;6234574;22;20438;-57
2022/03/24 12:28:09;;;;;;;35.58;22.52;;;24.90;79.60;;;;;;6234377;22;20027;-58
2022/03/24 12:31:08;;;;;;;32.00;22.30;;;25.10;79.10;;;;;;6263098;22;20019;-58
2022/03/24 12:33:37;;;;;;;34.70;23.80;;;25.00;77.40;;;;;;6227931;22;20019;-58
2022/03/24 12:36:04;;;;;;;33.65;25.67;;;26.10;80.40;;;;;;6261843;22;20023;-58
2022/03/24 12:38:40;;;;;;;30.98;23.70;;;28.00;78.70;;;;;;6261207;22;20024;-58